Pagina principală
METAR-TAF:

METAR-TAF

Aeroporturi :

McComb, Mississippi, Statele Unite ale Americii

Latitudine: 31-10-42N, longitudine: 090-28-19W, elevație: 126 m

Observații meteo curente

Raportul a fost făcut în urmă cu 31 de minute, la 20:53 UTC
Vânt 5 kt din direcții variabile
Temperatură 33°C
Umiditate 44%
Presiune 1016 hPa
Vizibilitate: 16.1 km
Nori împrăștiați la o înălțime de 6000 picior

METAR: KMCB 222053Z AUTO VRB05KT 10SM SCT060 33/19 A3001 RMK AO2 SLP155 T03280194 56020

Ora: 16:24 (21:24 UTC)

Prognoză

Raportul a fost făcut în urmă cu 4 ore și 0 de minute, la 17:24 UTC
Prognoză valabilă de la 22 ora 18 UTC la 23 ora 18 UTC
Vânt 5 kt din direcții variabile
Vizibilitate: 10 km
Nori puțini la o înălțime de 5000 picior
Temporar
de la 23 ora 10 UTC la 23 ora 13 UTC
Vizibilitate: 6.4 km
aer cețos,

TAF: KMCB 221724Z 2218/2318 VRB05KT P6SM FEW050 TEMPO 2310/2313 4SM BR

Observații și prognoze meteo pentru peste 4.000 de aeroporturi (rapoarte METAR și TAF).

Stațiile disponibile sunt reprezentate pe hartă prin puncte galbene și roșii.

Țineți indicatorul mouse-ului pe punctul dorit pentru a vedea denumirea stației.

Apoi, faceți clic pentru a vedea observațiile și prognozele meteorologice.

Pentru a schimba harta: Pentru mărire, faceți clic pe butoanele verzi cu cruce neagră; pentru micșorare, pe butonul verde cu o liniuță; pentru hărți învecinate, pe săgețile verzi.


METAR-TAF: